Time;durP1;ratioP1;P1;durP2;ratioP2;P2;SDS_P1;SDS_P2;PMS_P1;PMS_P2;Temp;Humidity;BMP_temperature;BMP_pressure;BME280_temperature;BME280_humidity;BME280_pressure;Samples;Min_cycle;Max_cycle;Signal;HPM_P1;HPM_P2
2021/07/29 00:01:13;;;;;;;5.93;2.92;;;;;;;;;;5051152;28;20067;-68
2021/07/29 00:03:39;;;;;;;6.63;3.33;;;;;;;;;;5060643;28;20484;-68
2021/07/29 00:06:06;;;;;;;8.95;3.17;;;;;;;;;;5053350;28;20511;-68
2021/07/29 00:08:32;;;;;;;5.25;3.33;;;;;;;;;;5056905;28;20442;-68
2021/07/29 00:10:58;;;;;;;5.18;3.22;;;;;;;;;;5053428;28;20068;-68
2021/07/29 00:13:24;;;;;;;8.52;3.28;;;;;;;;;;5054880;28;20091;-68
2021/07/29 00:15:50;;;;;;;4.45;2.92;;;;;;;;;;5051185;28;20504;-68
2021/07/29 00:20:43;;;;;;;4.63;2.70;;;;;;;;;;5049072;28;20120;-68
2021/07/29 00:23:09;;;;;;;6.28;3.30;;;;;;;;;;5058234;28;20045;-68
2021/07/29 00:25:35;;;;;;;6.90;2.72;;;;;;;;;;5054928;28;20044;-68
2021/07/29 00:28:01;;;;;;;4.35;3.22;;;;;;;;;;5058427;28;20500;-68
2021/07/29 00:30:27;;;;;;;8.40;3.38;;;;;;;;;;5061623;28;20174;-67
2021/07/29 00:32:54;;;;;;;6.55;3.28;;;;;;;;;;5049122;28;20041;-67
2021/07/29 00:35:21;;;;;;;4.07;2.80;;;;;;;;;;5058386;28;20044;-68
2021/07/29 00:37:49;;;;;;;5.97;2.97;;;;;;;;;;5052532;28;20067;-68
2021/07/29 00:40:18;;;;;;;8.20;3.10;;;;;;;;;;5058696;28;20048;-68
2021/07/29 00:42:46;;;;;;;7.45;3.45;;;;;;;;;;5048044;28;20122;-68
2021/07/29 00:45:12;;;;;;;5.65;3.00;;;;;;;;;;5054573;28;20065;-68
2021/07/29 00:47:42;;;;;;;4.95;3.03;;;;;;;;;;5057533;28;20044;-68
2021/07/29 00:50:10;;;;;;;6.68;3.03;;;;;;;;;;5057590;28;20438;-68
2021/07/29 00:52:36;;;;;;;6.95;3.05;;;;;;;;;;5050329;28;20032;-68
2021/07/29 00:55:02;;;;;;;6.15;3.05;;;;;;;;;;5061248;28;20029;-68
2021/07/29 00:57:28;;;;;;;7.68;3.38;;;;;;;;;;5051700;28;20037;-68
2021/07/29 00:59:55;;;;;;;7.25;3.72;;;;;;;;;;5058931;28;20037;-68
2021/07/29 01:02:21;;;;;;;8.95;3.25;;;;;;;;;;5053124;28;20037;-68
2021/07/29 01:04:47;;;;;;;5.15;3.22;;;;;;;;;;5036814;28;20064;-68
2021/07/29 01:07:13;;;;;;;6.28;3.47;;;;;;;;;;5047713;28;20075;-68
2021/07/29 01:09:40;;;;;;;9.55;3.55;;;;;;;;;;5060401;28;20546;-68
2021/07/29 01:12:06;;;;;;;7.22;3.30;;;;;;;;;;5051757;28;20468;-68
2021/07/29 01:14:33;;;;;;;5.90;3.10;;;;;;;;;;5054864;28;20396;-67
2021/07/29 01:16:59;;;;;;;6.38;2.95;;;;;;;;;;5058311;28;20067;-68
2021/07/29 01:19:26;;;;;;;5.38;2.83;;;;;;;;;;5054246;28;20560;-68
2021/07/29 01:21:53;;;;;;;7.03;3.15;;;;;;;;;;5056212;28;20067;-68
2021/07/29 01:24:20;;;;;;;7.35;3.28;;;;;;;;;;5053354;28;20532;-68
2021/07/29 01:26:46;;;;;;;7.72;2.70;;;;;;;;;;5061213;28;20044;-68
2021/07/29 01:29:12;;;;;;;8.70;3.15;;;;;;;;;;5057140;28;20041;-68
2021/07/29 01:31:39;;;;;;;9.02;3.15;;;;;;;;;;5058061;28;20048;-68
2021/07/29 01:34:05;;;;;;;9.05;3.38;;;;;;;;;;5055471;28;20036;-68
2021/07/29 01:36:31;;;;;;;7.80;3.10;;;;;;;;;;5057485;28;20389;-68
2021/07/29 01:38:58;;;;;;;7.30;3.13;;;;;;;;;;5051910;28;20029;-68
2021/07/29 01:41:24;;;;;;;10.10;3.30;;;;;;;;;;5055495;28;20041;-68
2021/07/29 01:43:50;;;;;;;5.68;3.05;;;;;;;;;;5054055;28;20780;-68
2021/07/29 01:46:17;;;;;;;4.63;2.92;;;;;;;;;;5059769;28;20172;-68
2021/07/29 01:48:43;;;;;;;10.43;3.03;;;;;;;;;;5064654;28;20524;-68
2021/07/29 01:51:09;;;;;;;8.05;3.22;;;;;;;;;;5053564;28;20140;-68
2021/07/29 01:53:35;;;;;;;7.30;3.08;;;;;;;;;;5061173;28;20104;-68
2021/07/29 01:56:01;;;;;;;9.75;3.13;;;;;;;;;;5053159;28;20710;-68
2021/07/29 01:58:27;;;;;;;6.55;3.20;;;;;;;;;;5061145;28;20116;-68
2021/07/29 02:00:54;;;;;;;7.22;3.20;;;;;;;;;;5054642;28;20174;-68
2021/07/29 02:03:20;;;;;;;7.35;3.30;;;;;;;;;;5063085;28;20064;-68
2021/07/29 02:05:46;;;;;;;7.07;2.88;;;;;;;;;;5055389;28;20054;-68
2021/07/29 02:08:12;;;;;;;4.53;2.58;;;;;;;;;;5063514;28;20090;-68
2021/07/29 02:10:38;;;;;;;6.60;2.88;;;;;;;;;;5033481;28;20246;-68
2021/07/29 02:13:04;;;;;;;8.65;3.05;;;;;;;;;;5063634;28;20068;-68
2021/07/29 02:15:31;;;;;;;9.40;2.50;;;;;;;;;;5056065;28;20045;-68
2021/07/29 02:18:00;;;;;;;7.45;2.88;;;;;;;;;;5059920;28;20456;-68
2021/07/29 02:20:27;;;;;;;6.40;2.50;;;;;;;;;;5051215;28;20429;-68
2021/07/29 02:22:53;;;;;;;5.82;2.88;;;;;;;;;;5044467;28;20068;-68
2021/07/29 02:25:20;;;;;;;9.60;3.00;;;;;;;;;;5053492;28;20047;-68
2021/07/29 02:27:46;;;;;;;5.90;2.30;;;;;;;;;;5066227;28;20040;-68
2021/07/29 02:30:13;;;;;;;7.55;2.42;;;;;;;;;;5061912;28;20049;-71
2021/07/29 02:32:39;;;;;;;2.97;0.80;;;;;;;;;;5059948;28;20032;-70
2021/07/29 02:35:06;;;;;;;5.20;1.00;;;;;;;;;;5060723;28;20033;-70
2021/07/29 02:37:32;;;;;;;3.15;0.35;;;;;;;;;;5056267;28;20083;-71
2021/07/29 02:39:58;;;;;;;0.95;0.30;;;;;;;;;;5060968;28;20443;-71
2021/07/29 02:42:24;;;;;;;2.72;0.35;;;;;;;;;;5056043;28;20037;-71
2021/07/29 02:44:51;;;;;;;2.75;0.50;;;;;;;;;;5058490;28;20048;-71
2021/07/29 02:47:17;;;;;;;2.38;0.30;;;;;;;;;;5053400;28;20040;-71
2021/07/29 02:49:44;;;;;;;3.58;0.50;;;;;;;;;;5040571;28;20469;-71
2021/07/29 02:52:10;;;;;;;0.88;0.30;;;;;;;;;;5053383;28;20047;-71
2021/07/29 02:54:36;;;;;;;1.85;0.35;;;;;;;;;;5065362;28;20078;-71
2021/07/29 02:57:02;;;;;;;1.75;0.43;;;;;;;;;;5051343;28;20103;-71
2021/07/29 02:59:28;;;;;;;1.75;0.40;;;;;;;;;;5060996;28;20469;-71
2021/07/29 03:01:54;;;;;;;1.65;0.38;;;;;;;;;;5039001;28;20095;-71
2021/07/29 03:04:21;;;;;;;1.23;0.45;;;;;;;;;;5062136;28;20238;-71
2021/07/29 03:06:48;;;;;;;2.20;0.50;;;;;;;;;;5055664;28;20498;-71
2021/07/29 03:09:14;;;;;;;0.93;0.30;;;;;;;;;;5060166;28;20455;-71
2021/07/29 03:11:40;;;;;;;2.10;0.50;;;;;;;;;;5055464;28;20168;-71
2021/07/29 03:14:06;;;;;;;2.92;0.50;;;;;;;;;;5055901;28;20289;-71
2021/07/29 03:16:33;;;;;;;1.33;0.50;;;;;;;;;;5041168;28;20049;-70
2021/07/29 03:19:02;;;;;;;1.63;0.60;;;;;;;;;;5041289;28;20353;-70
2021/07/29 03:21:28;;;;;;;2.00;0.75;;;;;;;;;;5059404;28;20032;-70
2021/07/29 03:23:54;;;;;;;2.33;0.93;;;;;;;;;;5052442;28;20567;-70
2021/07/29 03:26:21;;;;;;;3.17;1.20;;;;;;;;;;5055342;28;20404;-70
2021/07/29 03:28:47;;;;;;;4.28;1.60;;;;;;;;;;5051544;28;20071;-70
2021/07/29 03:31:13;;;;;;;5.32;1.65;;;;;;;;;;5057990;28;20468;-70
2021/07/29 03:33:39;;;;;;;4.72;1.35;;;;;;;;;;5053760;28;20134;-70
2021/07/29 03:36:05;;;;;;;5.82;1.75;;;;;;;;;;5059303;28;20044;-70
2021/07/29 03:38:31;;;;;;;4.15;1.10;;;;;;;;;;5054773;28;20033;-70
2021/07/29 03:40:58;;;;;;;4.88;1.40;;;;;;;;;;5054410;28;20484;-70
2021/07/29 03:43:24;;;;;;;4.18;1.33;;;;;;;;;;5055137;28;20046;-70
2021/07/29 03:45:51;;;;;;;6.15;1.40;;;;;;;;;;5058295;28;20079;-70
2021/07/29 03:48:18;;;;;;;4.07;1.58;;;;;;;;;;5058535;28;20033;-70
2021/07/29 03:50:45;;;;;;;7.05;1.70;;;;;;;;;;5054417;28;20039;-70
2021/07/29 03:53:11;;;;;;;6.78;1.77;;;;;;;;;;5041060;28;20052;-70
2021/07/29 03:55:38;;;;;;;5.22;2.08;;;;;;;;;;5050963;28;20186;-70
2021/07/29 03:58:04;;;;;;;6.60;2.20;;;;;;;;;;5059026;28;20090;-70
2021/07/29 04:00:30;;;;;;;4.03;1.85;;;;;;;;;;5051434;28;20111;-70
2021/07/29 04:02:56;;;;;;;8.02;2.42;;;;;;;;;;5058940;28;20558;-70
2021/07/29 04:05:23;;;;;;;10.20;2.40;;;;;;;;;;5049277;28;20044;-70
2021/07/29 04:07:49;;;;;;;10.45;2.53;;;;;;;;;;5057402;28;20048;-70
2021/07/29 04:10:15;;;;;;;8.43;2.53;;;;;;;;;;5051936;28;20433;-70
2021/07/29 04:12:41;;;;;;;9.25;2.35;;;;;;;;;;5061009;28;20043;-70
2021/07/29 04:15:07;;;;;;;9.85;2.38;;;;;;;;;;5055739;28;20050;-70
2021/07/29 04:17:33;;;;;;;6.32;2.20;;;;;;;;;;5054974;28;20044;-71
2021/07/29 04:20:00;;;;;;;8.18;2.53;;;;;;;;;;5053185;28;20644;-71
2021/07/29 04:22:27;;;;;;;11.35;3.08;;;;;;;;;;5056205;28;20123;-71
2021/07/29 04:24:54;;;;;;;7.15;2.55;;;;;;;;;;5036782;28;20381;-71
2021/07/29 04:27:20;;;;;;;12.68;2.92;;;;;;;;;;5058629;28;20056;-71
2021/07/29 04:29:51;;;;;;;8.55;2.72;;;;;;;;;;5059051;28;20043;-71
2021/07/29 04:32:20;;;;;;;10.32;2.55;;;;;;;;;;5054371;28;20045;-71
2021/07/29 04:34:48;;;;;;;7.00;2.08;;;;;;;;;;5061150;28;20116;-71
2021/07/29 04:37:15;;;;;;;13.15;2.80;;;;;;;;;;5033764;28;21897;-71
2021/07/29 04:39:42;;;;;;;11.00;2.80;;;;;;;;;;5042297;28;20044;-71
2021/07/29 04:42:12;;;;;;;7.60;2.58;;;;;;;;;;5053907;28;20056;-69
2021/07/29 04:44:39;;;;;;;11.73;3.17;;;;;;;;;;5052893;28;20033;-69
2021/07/29 04:47:06;;;;;;;9.73;2.97;;;;;;;;;;5037301;28;20037;-70
2021/07/29 04:49:35;;;;;;;12.85;3.15;;;;;;;;;;5062251;28;20036;-70
2021/07/29 04:52:01;;;;;;;11.75;3.20;;;;;;;;;;5051923;28;20094;-70
2021/07/29 04:54:27;;;;;;;11.70;3.10;;;;;;;;;;5056285;28;20135;-70
2021/07/29 04:56:53;;;;;;;10.90;3.03;;;;;;;;;;5052342;28;20056;-70
2021/07/29 04:59:21;;;;;;;11.90;3.55;;;;;;;;;;5058578;28;20410;-70
2021/07/29 05:01:51;;;;;;;12.20;3.40;;;;;;;;;;5052986;28;20120;-70
2021/07/29 05:04:17;;;;;;;10.05;3.92;;;;;;;;;;5057906;28;20055;-70
2021/07/29 05:06:44;;;;;;;10.30;3.00;;;;;;;;;;5058118;28;20060;-70
2021/07/29 05:09:10;;;;;;;9.60;3.30;;;;;;;;;;5061642;28;20087;-70
2021/07/29 05:11:40;;;;;;;8.63;2.90;;;;;;;;;;5052352;28;20037;-70
2021/07/29 05:14:07;;;;;;;10.48;3.38;;;;;;;;;;5063164;28;20043;-70
2021/07/29 05:16:45;;;;;;;8.75;3.22;;;;;;;;;;5042793;28;20037;-69
2021/07/29 05:19:11;;;;;;;9.40;2.58;;;;;;;;;;5060290;28;20108;-70
2021/07/29 05:21:39;;;;;;;7.57;3.22;;;;;;;;;;5062867;28;20033;-70
2021/07/29 05:24:08;;;;;;;6.05;2.20;;;;;;;;;;5054164;28;20037;-70
2021/07/29 05:26:34;;;;;;;9.50;2.75;;;;;;;;;;5059644;28;20059;-69
2021/07/29 05:29:00;;;;;;;7.28;2.25;;;;;;;;;;5057848;28;20108;-70
2021/07/29 05:31:27;;;;;;;12.10;2.70;;;;;;;;;;5063779;28;20579;-69
2021/07/29 05:33:54;;;;;;;9.25;2.17;;;;;;;;;;5059062;28;20043;-69
2021/07/29 05:36:20;;;;;;;5.82;2.13;;;;;;;;;;5065185;28;20033;-69
2021/07/29 05:38:46;;;;;;;8.63;2.40;;;;;;;;;;5057160;28;20480;-69
2021/07/29 05:41:12;;;;;;;5.97;1.67;;;;;;;;;;5064450;28;20032;-69
2021/07/29 05:43:39;;;;;;;8.45;2.60;;;;;;;;;;5054266;28;20544;-69
2021/07/29 05:46:12;;;;;;;9.43;2.20;;;;;;;;;;5067588;28;20041;-69
2021/07/29 05:48:39;;;;;;;9.80;2.10;;;;;;;;;;5055844;28;20037;-69
2021/07/29 05:51:06;;;;;;;7.13;1.88;;;;;;;;;;5063865;28;20499;-69
2021/07/29 05:53:32;;;;;;;5.10;1.92;;;;;;;;;;5043361;28;20036;-69
2021/07/29 05:56:01;;;;;;;9.68;1.92;;;;;;;;;;5063011;28;20473;-69
2021/07/29 05:58:28;;;;;;;7.28;2.60;;;;;;;;;;5056371;28;20040;-69
2021/07/29 06:00:54;;;;;;;8.93;2.05;;;;;;;;;;5067586;28;20457;-70
2021/07/29 06:03:21;;;;;;;8.52;2.92;;;;;;;;;;5066886;28;20068;-71
2021/07/29 06:05:47;;;;;;;10.40;1.92;;;;;;;;;;5059477;28;20421;-71
2021/07/29 06:08:13;;;;;;;11.38;2.65;;;;;;;;;;5065526;28;20036;-71
2021/07/29 06:10:40;;;;;;;9.63;1.83;;;;;;;;;;5056695;28;20029;-70
2021/07/29 06:13:06;;;;;;;8.73;2.72;;;;;;;;;;5064306;28;20079;-70
2021/07/29 06:15:33;;;;;;;7.57;1.75;;;;;;;;;;5057598;28;20049;-70
2021/07/29 06:18:00;;;;;;;9.38;1.92;;;;;;;;;;5043420;28;20461;-70
2021/07/29 06:20:29;;;;;;;8.52;2.30;;;;;;;;;;5058418;28;20037;-70
2021/07/29 06:22:56;;;;;;;10.55;2.00;;;;;;;;;;5066413;28;20029;-70
2021/07/29 06:25:22;;;;;;;11.07;2.75;;;;;;;;;;5056129;28;20032;-70
2021/07/29 06:27:49;;;;;;;11.10;2.33;;;;;;;;;;5043983;28;20080;-70
2021/07/29 06:30:18;;;;;;;8.82;2.33;;;;;;;;;;5056214;28;20036;-70
2021/07/29 06:32:44;;;;;;;10.00;2.30;;;;;;;;;;5063100;28;20391;-69
2021/07/29 06:35:10;;;;;;;9.00;2.22;;;;;;;;;;5056149;28;20040;-69
2021/07/29 06:37:37;;;;;;;8.73;1.95;;;;;;;;;;5062079;28;20443;-69
2021/07/29 06:40:03;;;;;;;10.80;2.10;;;;;;;;;;5057074;28;20044;-69
2021/07/29 06:42:30;;;;;;;12.95;2.60;;;;;;;;;;5063755;28;20033;-69
2021/07/29 06:44:56;;;;;;;13.65;2.38;;;;;;;;;;5058759;28;20037;-69
2021/07/29 06:47:23;;;;;;;12.32;2.83;;;;;;;;;;5053801;28;20036;-70
2021/07/29 06:49:53;;;;;;;9.07;2.03;;;;;;;;;;5063193;28;20044;-70
2021/07/29 06:52:19;;;;;;;6.93;1.67;;;;;;;;;;5053680;28;20036;-70
2021/07/29 06:54:45;;;;;;;8.32;1.77;;;;;;;;;;5065217;28;20087;-70
2021/07/29 06:57:11;;;;;;;9.90;2.15;;;;;;;;;;5054789;28;20120;-71
2021/07/29 06:59:37;;;;;;;9.85;1.65;;;;;;;;;;5065398;28;20535;-70
2021/07/29 07:02:03;;;;;;;7.90;1.80;;;;;;;;;;5056282;28;20116;-72
2021/07/29 07:04:32;;;;;;;11.57;2.35;;;;;;;;;;5067772;28;20040;-72
2021/07/29 07:06:58;;;;;;;8.43;2.20;;;;;;;;;;5056141;28;20485;-71
2021/07/29 07:09:25;;;;;;;9.02;2.33;;;;;;;;;;5066074;28;20037;-72
2021/07/29 07:11:51;;;;;;;9.05;1.98;;;;;;;;;;5058753;28;20064;-69
2021/07/29 07:14:17;;;;;;;14.80;2.47;;;;;;;;;;5062004;28;20400;-70
2021/07/29 07:16:43;;;;;;;7.80;2.15;;;;;;;;;;5056452;28;20050;-69
2021/07/29 07:19:09;;;;;;;13.85;3.85;;;;;;;;;;5062535;28;20454;-69
2021/07/29 07:21:37;;;;;;;10.20;2.20;;;;;;;;;;5057925;28;20673;-69
2021/07/29 07:24:04;;;;;;;11.60;2.22;;;;;;;;;;5064617;28;20112;-69
2021/07/29 07:26:30;;;;;;;10.48;2.47;;;;;;;;;;5048661;28;20056;-69
2021/07/29 07:28:56;;;;;;;7.80;1.70;;;;;;;;;;5054966;28;20041;-68
2021/07/29 07:31:22;;;;;;;7.88;1.67;;;;;;;;;;5064149;28;20412;-66
2021/07/29 07:33:48;;;;;;;8.10;1.58;;;;;;;;;;5056597;28;20040;-66
2021/07/29 07:36:18;;;;;;;6.72;1.42;;;;;;;;;;5056481;28;20033;-68
2021/07/29 07:38:45;;;;;;;6.65;1.60;;;;;;;;;;5052268;28;20455;-66
2021/07/29 07:41:11;;;;;;;8.77;1.58;;;;;;;;;;5060220;28;20523;-68
2021/07/29 07:43:38;;;;;;;7.38;1.40;;;;;;;;;;5058208;28;20040;-68
2021/07/29 07:46:05;;;;;;;6.30;1.58;;;;;;;;;;5064006;28;20037;-68
2021/07/29 07:48:31;;;;;;;6.53;1.55;;;;;;;;;;5054519;28;20076;-68
2021/07/29 07:50:59;;;;;;;10.20;1.92;;;;;;;;;;5062505;28;20580;-68
2021/07/29 07:53:27;;;;;;;7.78;1.63;;;;;;;;;;5050157;28;20068;-68
2021/07/29 07:55:56;;;;;;;10.50;2.55;;;;;;;;;;5062436;28;20433;-67
2021/07/29 07:58:22;;;;;;;10.52;2.30;;;;;;;;;;5052768;28;20445;-67
2021/07/29 08:00:49;;;;;;;9.45;1.98;;;;;;;;;;5060269;28;20119;-67
2021/07/29 08:03:15;;;;;;;10.25;2.42;;;;;;;;;;5054454;28;20064;-67
2021/07/29 08:05:41;;;;;;;10.48;2.55;;;;;;;;;;5062679;28;20067;-68
2021/07/29 08:08:08;;;;;;;9.75;2.05;;;;;;;;;;5060284;28;20044;-67
2021/07/29 08:10:38;;;;;;;10.00;2.05;;;;;;;;;;5054538;28;20052;-67
2021/07/29 08:13:05;;;;;;;8.68;2.03;;;;;;;;;;5057624;28;20123;-67
2021/07/29 08:15:31;;;;;;;10.98;1.80;;;;;;;;;;5052654;28;20133;-68
2021/07/29 08:17:58;;;;;;;9.85;1.80;;;;;;;;;;5062891;28;20041;-68
2021/07/29 08:20:28;;;;;;;15.80;2.80;;;;;;;;;;5059404;28;20072;-68
2021/07/29 08:22:55;;;;;;;13.65;2.20;;;;;;;;;;5060728;28;20040;-67
2021/07/29 08:25:22;;;;;;;9.90;2.00;;;;;;;;;;5056033;28;20106;-68
2021/07/29 08:27:49;;;;;;;8.23;1.52;;;;;;;;;;5065304;28;20040;-68
2021/07/29 08:30:16;;;;;;;11.70;2.47;;;;;;;;;;5056751;28;20425;-68
2021/07/29 08:32:43;;;;;;;8.73;1.98;;;;;;;;;;5058978;28;20409;-69
2021/07/29 08:35:09;;;;;;;8.13;2.67;;;;;;;;;;5056276;28;20491;-68
2021/07/29 08:37:35;;;;;;;6.75;1.77;;;;;;;;;;5058068;28;20112;-70
2021/07/29 08:40:01;;;;;;;6.63;1.63;;;;;;;;;;5053645;28;20455;-68
2021/07/29 08:42:27;;;;;;;7.78;1.65;;;;;;;;;;5054296;28;20032;-69
2021/07/29 08:44:54;;;;;;;8.18;1.90;;;;;;;;;;5054660;28;20112;-69
2021/07/29 08:47:24;;;;;;;12.75;1.83;;;;;;;;;;5061314;28;20044;-69
2021/07/29 08:49:56;;;;;;;17.25;1.80;;;;;;;;;;5057716;28;20064;-68
2021/07/29 08:52:23;;;;;;;12.57;1.83;;;;;;;;;;5057265;28;20504;-68
2021/07/29 08:54:51;;;;;;;7.88;1.65;;;;;;;;;;5057896;28;20048;-69
2021/07/29 08:57:26;;;;;;;4.68;1.40;;;;;;;;;;5045956;28;20041;-69
2021/07/29 08:59:52;;;;;;;7.68;1.65;;;;;;;;;;5059055;28;20051;-69
2021/07/29 09:02:22;;;;;;;8.15;1.80;;;;;;;;;;5054301;28;20042;-69
2021/07/29 09:05:06;;;;;;;6.22;1.42;;;;;;;;;;5062789;28;20037;-69
2021/07/29 09:07:33;;;;;;;6.95;1.58;;;;;;;;;;5055868;28;20453;-67
2021/07/29 09:09:59;;;;;;;5.10;1.50;;;;;;;;;;5061668;28;20489;-65
2021/07/29 09:12:25;;;;;;;8.52;1.65;;;;;;;;;;5054624;28;20132;-67
2021/07/29 09:14:52;;;;;;;4.60;1.70;;;;;;;;;;5058137;28;20520;-69
2021/07/29 09:17:19;;;;;;;4.68;1.17;;;;;;;;;;5055692;28;20037;-69
2021/07/29 09:19:46;;;;;;;5.18;1.50;;;;;;;;;;5062706;28;20059;-67
2021/07/29 09:22:25;;;;;;;9.05;1.88;;;;;;;;;;5052014;28;20485;-66
2021/07/29 09:25:10;;;;;;;4.68;1.45;;;;;;;;;;5058696;28;20183;-66
2021/07/29 09:27:39;;;;;;;6.57;1.75;;;;;;;;;;5052877;28;20040;-65
2021/07/29 09:30:12;;;;;;;5.78;1.40;;;;;;;;;;5063174;28;20059;-66
2021/07/29 09:32:52;;;;;;;6.35;1.65;;;;;;;;;;5056789;28;20041;-66
2021/07/29 09:35:33;;;;;;;7.82;1.77;;;;;;;;;;5055440;28;20033;-66
2021/07/29 09:38:00;;;;;;;5.82;1.40;;;;;;;;;;5054732;28;20076;-66
2021/07/29 09:40:26;;;;;;;8.25;1.52;;;;;;;;;;5061970;28;20102;-66
2021/07/29 09:43:13;;;;;;;7.25;1.90;;;;;;;;;;5054622;28;20041;-67
2021/07/29 09:45:39;;;;;;;7.22;1.55;;;;;;;;;;5058654;28;20587;-67
2021/07/29 09:48:06;;;;;;;5.40;1.55;;;;;;;;;;5051566;28;20564;-66
2021/07/29 09:50:33;;;;;;;9.35;1.75;;;;;;;;;;5057982;28;20128;-66
2021/07/29 09:53:00;;;;;;;5.63;1.42;;;;;;;;;;5050974;28;20565;-66
2021/07/29 09:55:28;;;;;;;4.72;1.52;;;;;;;;;;5066324;28;20048;-66
2021/07/29 09:57:54;;;;;;;4.95;1.38;;;;;;;;;;5061759;28;20106;-66
2021/07/29 10:00:20;;;;;;;6.05;1.35;;;;;;;;;;5062692;28;20149;-66
2021/07/29 10:02:47;;;;;;;4.90;1.27;;;;;;;;;;5058636;28;20047;-68
2021/07/29 10:05:18;;;;;;;6.90;1.67;;;;;;;;;;5057656;28;20052;-66
2021/07/29 10:07:48;;;;;;;8.02;1.40;;;;;;;;;;5063560;28;20055;-66
2021/07/29 10:10:21;;;;;;;5.15;1.40;;;;;;;;;;5060647;28;20043;-66
2021/07/29 10:12:51;;;;;;;5.03;1.50;;;;;;;;;;5065313;28;20059;-66
2021/07/29 10:15:37;;;;;;;8.23;1.55;;;;;;;;;;5057413;28;20066;-65
2021/07/29 10:18:05;;;;;;;6.90;1.30;;;;;;;;;;5061136;28;20040;-68
2021/07/29 10:20:34;;;;;;;3.22;1.27;;;;;;;;;;5057619;28;20053;-67
2021/07/29 10:23:13;;;;;;;7.63;1.15;;;;;;;;;;5061844;28;20037;-67
2021/07/29 10:25:53;;;;;;;6.40;1.23;;;;;;;;;;5050032;28;20045;-67
2021/07/29 10:28:22;;;;;;;5.28;1.30;;;;;;;;;;5065777;28;20044;-66
2021/07/29 10:30:52;;;;;;;6.00;1.35;;;;;;;;;;5054132;28;20059;-66
2021/07/29 10:33:19;;;;;;;10.10;1.20;;;;;;;;;;5061510;28;20116;-66
2021/07/29 10:35:45;;;;;;;5.22;1.48;;;;;;;;;;5054278;28;20044;-65
2021/07/29 10:38:11;;;;;;;4.97;1.33;;;;;;;;;;5062650;28;20051;-65
2021/07/29 10:40:42;;;;;;;4.63;1.42;;;;;;;;;;5054918;28;20052;-65
2021/07/29 10:43:20;;;;;;;6.72;1.65;;;;;;;;;;5062045;28;20480;-64
2021/07/29 10:45:53;;;;;;;7.95;1.60;;;;;;;;;;5039184;28;20040;-64
2021/07/29 10:48:38;;;;;;;5.07;1.23;;;;;;;;;;5058255;28;20403;-64
2021/07/29 10:51:14;;;;;;;6.85;2.10;;;;;;;;;;5052112;28;20040;-64
2021/07/29 10:53:41;;;;;;;5.75;1.20;;;;;;;;;;5059038;28;20049;-64
2021/07/29 10:56:13;;;;;;;3.75;1.20;;;;;;;;;;5061189;28;20439;-65
2021/07/29 10:58:41;;;;;;;6.93;1.50;;;;;;;;;;5060716;28;20040;-65
2021/07/29 11:01:07;;;;;;;5.47;1.27;;;;;;;;;;5055781;28;20055;-66
2021/07/29 11:03:33;;;;;;;8.00;1.50;;;;;;;;;;5062153;28;20915;-66
2021/07/29 11:06:05;;;;;;;4.57;1.20;;;;;;;;;;5058124;28;20135;-66
2021/07/29 11:08:31;;;;;;;6.22;1.52;;;;;;;;;;5060493;28;20492;-66
2021/07/29 11:10:59;;;;;;;6.47;1.50;;;;;;;;;;5056207;28;20124;-67
2021/07/29 11:13:26;;;;;;;5.30;1.45;;;;;;;;;;5063195;28;20047;-66
2021/07/29 11:15:52;;;;;;;5.55;1.60;;;;;;;;;;5054311;28;20045;-67
2021/07/29 11:18:19;;;;;;;6.15;1.60;;;;;;;;;;5061926;28;20037;-66
2021/07/29 11:20:45;;;;;;;7.25;1.70;;;;;;;;;;5059994;28;20052;-65
2021/07/29 11:23:14;;;;;;;6.40;1.65;;;;;;;;;;5061695;28;20070;-66
2021/07/29 11:25:59;;;;;;;6.70;1.40;;;;;;;;;;5064636;28;20052;-70
2021/07/29 11:28:25;;;;;;;2.83;1.38;;;;;;;;;;5059745;28;20036;-67
2021/07/29 11:30:51;;;;;;;5.63;1.27;;;;;;;;;;5061591;28;20040;-69
2021/07/29 11:33:21;;;;;;;5.47;1.23;;;;;;;;;;5057062;28;20037;-68
2021/07/29 11:35:47;;;;;;;9.43;2.13;;;;;;;;;;5061502;28;20032;-68
2021/07/29 11:38:18;;;;;;;7.40;1.60;;;;;;;;;;5057377;28;20037;-68
2021/07/29 11:40:44;;;;;;;7.50;1.67;;;;;;;;;;5061747;28;20469;-68
2021/07/29 11:43:24;;;;;;;5.97;1.60;;;;;;;;;;5058331;28;20033;-67
2021/07/29 11:45:50;;;;;;;9.35;2.20;;;;;;;;;;5056502;28;20120;-67
2021/07/29 11:48:20;;;;;;;9.45;3.67;;;;;;;;;;5056576;28;20094;-67
2021/07/29 11:50:46;;;;;;;5.85;2.20;;;;;;;;;;5061322;28;20045;-68
2021/07/29 11:53:13;;;;;;;8.95;1.55;;;;;;;;;;5055656;28;20049;-68
2021/07/29 11:55:41;;;;;;;8.45;1.65;;;;;;;;;;5058699;28;20045;-69
2021/07/29 11:58:10;;;;;;;5.97;1.40;;;;;;;;;;5055185;28;20120;-70
2021/07/29 12:00:36;;;;;;;4.45;1.50;;;;;;;;;;5055388;28;20043;-73
2021/07/29 12:03:04;;;;;;;5.90;1.13;;;;;;;;;;5053341;28;20040;-73
2021/07/29 12:05:31;;;;;;;7.60;1.33;;;;;;;;;;5058159;28;20219;-73
2021/07/29 12:07:57;;;;;;;6.18;1.42;;;;;;;;;;5052747;28;20102;-73
2021/07/29 12:10:26;;;;;;;3.72;0.90;;;;;;;;;;5059023;28;20035;-73
2021/07/29 12:12:52;;;;;;;5.35;1.52;;;;;;;;;;5051409;28;20052;-73
2021/07/29 12:15:18;;;;;;;4.68;1.40;;;;;;;;;;5060609;28;20108;-73
2021/07/29 12:17:44;;;;;;;4.80;1.27;;;;;;;;;;5061550;28;20052;-70
2021/07/29 12:20:13;;;;;;;5.43;1.25;;;;;;;;;;5052430;28;20116;-70
2021/07/29 12:22:42;;;;;;;5.90;1.40;;;;;;;;;;5054233;28;20112;-70
2021/07/29 12:25:11;;;;;;;5.13;1.35;;;;;;;;;;5053122;28;20485;-70
2021/07/29 12:27:44;;;;;;;5.97;1.33;;;;;;;;;;5056392;28;20047;-70
2021/07/29 12:30:29;;;;;;;3.90;1.08;;;;;;;;;;5054247;28;20036;-71
2021/07/29 12:33:05;;;;;;;4.10;1.50;;;;;;;;;;5058137;28;20056;-69
2021/07/29 12:35:31;;;;;;;4.57;1.13;;;;;;;;;;5053120;28;20140;-69
2021/07/29 12:37:58;;;;;;;5.68;1.38;;;;;;;;;;5057984;28;20056;-72
2021/07/29 12:40:31;;;;;;;6.85;1.50;;;;;;;;;;5057377;28;20093;-67
2021/07/29 12:43:16;;;;;;;6.05;1.10;;;;;;;;;;5059717;28;20106;-68
2021/07/29 12:45:55;;;;;;;6.55;1.38;;;;;;;;;;5056145;28;20032;-65
2021/07/29 12:48:22;;;;;;;3.25;0.82;;;;;;;;;;5064041;28;20056;-67
2021/07/29 12:50:48;;;;;;;4.78;1.30;;;;;;;;;;5054624;28;20503;-67
2021/07/29 12:53:15;;;;;;;3.83;1.15;;;;;;;;;;5062401;28;20074;-64
2021/07/29 12:55:42;;;;;;;10.75;2.00;;;;;;;;;;5056835;28;20047;-69
2021/07/29 12:58:09;;;;;;;6.70;1.33;;;;;;;;;;5054072;28;20041;-69
2021/07/29 13:00:39;;;;;;;7.25;1.30;;;;;;;;;;5054054;28;20067;-69
2021/07/29 13:03:42;;;;;;;6.40;1.00;;;;;;;;;;5059494;28;20029;-69
2021/07/29 13:06:09;;;;;;;3.47;1.00;;;;;;;;;;5033082;28;20088;-70
2021/07/29 13:08:35;;;;;;;4.93;1.17;;;;;;;;;;5041685;28;20527;-66
2021/07/29 13:11:03;;;;;;;5.60;1.30;;;;;;;;;;5033839;28;20039;-66
2021/07/29 13:13:32;;;;;;;6.43;1.42;;;;;;;;;;5043653;28;20555;-66
2021/07/29 13:15:58;;;;;;;4.82;0.80;;;;;;;;;;5030737;28;20048;-66
2021/07/29 13:18:25;;;;;;;5.90;1.10;;;;;;;;;;5042278;28;20045;-67
2021/07/29 13:20:52;;;;;;;4.55;0.90;;;;;;;;;;5031883;28;20041;-66
2021/07/29 13:23:18;;;;;;;4.00;0.73;;;;;;;;;;5044444;28;20138;-69
2021/07/29 13:25:45;;;;;;;4.18;1.20;;;;;;;;;;5040142;28;20548;-70
2021/07/29 13:28:12;;;;;;;5.40;0.93;;;;;;;;;;5041731;28;20044;-68
2021/07/29 13:30:38;;;;;;;4.13;0.52;;;;;;;;;;5044685;28;20050;-66
2021/07/29 13:33:04;;;;;;;4.43;0.70;;;;;;;;;;5037197;28;20049;-66
2021/07/29 13:35:30;;;;;;;3.88;0.80;;;;;;;;;;5045215;28;20163;-66
2021/07/29 13:37:57;;;;;;;4.40;1.10;;;;;;;;;;5038542;28;20162;-67
2021/07/29 13:40:24;;;;;;;3.42;0.98;;;;;;;;;;5040290;28;20833;-67
2021/07/29 13:42:52;;;;;;;4.78;0.75;;;;;;;;;;5043960;28;20056;-67
2021/07/29 13:45:21;;;;;;;5.60;0.95;;;;;;;;;;5044934;28;20090;-67
2021/07/29 13:47:51;;;;;;;3.58;0.70;;;;;;;;;;5040670;28;20110;-67
2021/07/29 13:50:18;;;;;;;5.60;0.90;;;;;;;;;;5042461;28;20037;-67
2021/07/29 13:52:45;;;;;;;2.08;0.55;;;;;;;;;;5038155;28;20202;-67
2021/07/29 13:55:12;;;;;;;4.43;0.90;;;;;;;;;;5045617;28;20041;-67
2021/07/29 13:57:39;;;;;;;3.88;0.80;;;;;;;;;;5042375;28;20045;-67
2021/07/29 14:00:06;;;;;;;4.07;0.80;;;;;;;;;;5048151;28;20044;-67
2021/07/29 14:02:35;;;;;;;4.57;0.70;;;;;;;;;;5035108;28;20045;-67
2021/07/29 14:05:02;;;;;;;3.55;0.80;;;;;;;;;;5046404;28;20120;-69
2021/07/29 14:07:28;;;;;;;4.70;0.98;;;;;;;;;;5059411;28;23798;-69
2021/07/29 14:09:54;;;;;;;3.25;0.93;;;;;;;;;;5059845;28;20533;-69
2021/07/29 14:12:24;;;;;;;3.33;0.82;;;;;;;;;;5056495;28;20511;-69
2021/07/29 14:14:51;;;;;;;3.90;0.70;;;;;;;;;;5057420;28;20043;-69
2021/07/29 14:17:23;;;;;;;4.43;1.20;;;;;;;;;;5059408;28;20077;-69
2021/07/29 14:24:44;;;;;;;4.90;1.00;;;;;;;;;;5048507;28;20387;-68
2021/07/29 14:27:10;;;;;;;3.58;1.30;;;;;;;;;;5061046;28;20045;-68
2021/07/29 14:29:36;;;;;;;4.55;0.80;;;;;;;;;;5057883;28;20033;-68
2021/07/29 14:32:03;;;;;;;5.53;0.90;;;;;;;;;;5067873;28;20041;-68
2021/07/29 14:34:29;;;;;;;4.82;0.75;;;;;;;;;;5056350;28;20032;-68
2021/07/29 14:36:55;;;;;;;4.07;0.63;;;;;;;;;;5055970;28;20045;-68
2021/07/29 14:39:21;;;;;;;2.72;0.68;;;;;;;;;;5052806;28;20477;-68
2021/07/29 14:41:47;;;;;;;3.63;0.77;;;;;;;;;;5059611;28;20054;-67
2021/07/29 14:44:13;;;;;;;4.13;0.88;;;;;;;;;;5056577;28;20051;-68
2021/07/29 14:51:35;;;;;;;5.97;0.77;;;;;;;;;;5059902;28;20603;-68
2021/07/29 14:54:01;;;;;;;2.55;0.70;;;;;;;;;;5053902;28;20116;-67
2021/07/29 14:56:32;;;;;;;3.58;0.88;;;;;;;;;;5060383;28;20045;-67